createdAt,value
2022-12-03T00:00:53.473Z,8.77
2022-12-03T00:03:20.690Z,9.03
2022-12-03T00:05:48.979Z,9.07
2022-12-03T00:08:16.536Z,8.83
2022-12-03T00:10:43.690Z,9.33
2022-12-03T00:13:10.758Z,9.60
2022-12-03T00:15:37.826Z,9.40
2022-12-03T00:18:04.995Z,9.13
2022-12-03T00:20:32.085Z,8.27
2022-12-03T00:22:59.135Z,9.97
2022-12-03T00:25:26.310Z,8.80
2022-12-03T00:27:53.358Z,8.13
2022-12-03T00:30:20.382Z,9.00
2022-12-03T00:32:47.445Z,8.87
2022-12-03T00:35:14.490Z,8.57
2022-12-03T00:37:41.580Z,9.40
2022-12-03T00:40:08.987Z,8.23
2022-12-03T00:42:36.090Z,9.43
2022-12-03T00:45:05.533Z,8.50
2022-12-03T00:47:32.620Z,9.00
2022-12-03T00:49:59.731Z,7.90
2022-12-03T00:52:26.777Z,9.37
2022-12-03T00:54:54.115Z,9.20
2022-12-03T00:57:21.325Z,8.33
2022-12-03T00:59:48.386Z,8.63
2022-12-03T01:02:15.533Z,8.03
2022-12-03T01:04:42.754Z,9.00
2022-12-03T01:07:09.860Z,8.87
2022-12-03T01:09:36.950Z,8.70
2022-12-03T01:12:04.758Z,8.27
2022-12-03T01:14:31.836Z,8.83
2022-12-03T01:16:58.902Z,8.57
2022-12-03T01:19:25.979Z,8.47
2022-12-03T01:21:53.142Z,8.90
2022-12-03T01:24:20.467Z,8.93
2022-12-03T01:26:47.856Z,8.27
2022-12-03T01:29:15.164Z,8.23
2022-12-03T01:32:00.924Z,8.73
2022-12-03T01:34:28.090Z,9.13
2022-12-03T01:36:55.299Z,8.53
2022-12-03T01:39:22.427Z,9.33
2022-12-03T01:41:50.690Z,8.43
2022-12-03T01:44:21.738Z,8.77
2022-12-03T01:46:49.044Z,8.27
2022-12-03T01:49:19.006Z,8.60
2022-12-03T01:51:46.506Z,8.80
2022-12-03T01:54:16.759Z,8.80
2022-12-03T01:56:44.197Z,9.67
2022-12-03T01:59:19.172Z,9.87
2022-12-03T02:01:46.618Z,8.30
2022-12-03T02:04:14.603Z,8.93
2022-12-03T02:06:42.425Z,8.70
2022-12-03T02:09:13.261Z,9.10
2022-12-03T02:11:45.505Z,8.23
2022-12-03T02:14:19.660Z,8.07
2022-12-03T02:16:47.055Z,8.70
2022-12-03T02:19:32.348Z,8.67
2022-12-03T02:22:20.193Z,8.30
2022-12-03T02:24:53.278Z,8.80
2022-12-03T02:27:20.538Z,8.83
2022-12-03T02:29:47.573Z,8.27
2022-12-03T02:32:14.723Z,8.13
2022-12-03T02:34:43.470Z,7.90
2022-12-03T02:37:12.649Z,9.00
2022-12-03T02:39:41.728Z,8.70
2022-12-03T02:42:28.420Z,8.40
2022-12-03T02:44:58.434Z,8.27
2022-12-03T02:47:29.602Z,7.97
2022-12-03T02:49:57.155Z,9.17
2022-12-03T02:52:24.483Z,9.23
2022-12-03T02:54:52.026Z,8.27
2022-12-03T02:57:19.309Z,8.67
2022-12-03T02:59:46.642Z,8.17
2022-12-03T03:02:14.899Z,9.03
2022-12-03T03:04:43.007Z,8.43
2022-12-03T03:07:10.663Z,9.10
2022-12-03T03:09:37.870Z,8.30
2022-12-03T03:12:05.055Z,8.43
2022-12-03T03:14:32.965Z,9.13
2022-12-03T03:17:00.116Z,8.50
2022-12-03T03:19:27.234Z,8.30
2022-12-03T03:21:54.772Z,8.63
2022-12-03T03:24:22.628Z,8.73
2022-12-03T03:26:50.306Z,8.20
2022-12-03T03:29:17.411Z,8.43
2022-12-03T03:31:45.052Z,9.07
2022-12-03T03:34:12.435Z,8.27
2022-12-03T03:36:39.653Z,7.83
2022-12-03T03:39:06.895Z,8.90
2022-12-03T03:41:34.814Z,8.93
2022-12-03T03:44:02.087Z,7.77
2022-12-03T03:46:29.593Z,7.93
2022-12-03T03:48:56.862Z,8.83
2022-12-03T03:51:23.983Z,9.23
2022-12-03T03:53:52.142Z,8.33
2022-12-03T03:56:20.860Z,8.47
2022-12-03T03:58:47.898Z,8.17
2022-12-03T04:01:15.316Z,8.10
2022-12-03T04:03:42.589Z,8.37
2022-12-03T04:06:09.997Z,8.03
2022-12-03T04:08:37.104Z,8.47
2022-12-03T04:11:22.879Z,8.30
2022-12-03T04:13:49.939Z,8.03
2022-12-03T04:16:17.042Z,8.80
2022-12-03T04:18:44.178Z,7.93
2022-12-03T04:21:34.349Z,8.00
2022-12-03T04:24:01.944Z,8.60
2022-12-03T04:26:47.672Z,7.60
2022-12-03T04:29:14.722Z,7.53
2022-12-03T04:32:01.438Z,8.27
2022-12-03T04:34:47.294Z,7.87
2022-12-03T04:37:14.386Z,7.07
2022-12-03T04:39:41.460Z,8.00
2022-12-03T04:42:08.532Z,8.03
2022-12-03T04:44:36.528Z,7.77
2022-12-03T04:47:29.789Z,7.57
2022-12-03T04:49:56.830Z,7.50
2022-12-03T04:52:23.888Z,8.23
2022-12-03T04:54:51.104Z,8.20
2022-12-03T04:57:18.423Z,6.60
2022-12-03T04:59:45.480Z,8.57
2022-12-03T05:02:12.561Z,7.87
2022-12-03T05:04:39.650Z,7.17
2022-12-03T05:07:06.731Z,7.13
2022-12-03T05:09:33.810Z,8.57
2022-12-03T05:12:00.874Z,7.63
2022-12-03T05:14:27.947Z,7.77
2022-12-03T05:16:55.019Z,7.60
2022-12-03T05:19:42.116Z,8.10
2022-12-03T05:22:09.172Z,7.50
2022-12-03T05:24:36.253Z,8.13
2022-12-03T05:27:03.294Z,8.13
2022-12-03T05:29:30.357Z,7.30
2022-12-03T05:31:57.419Z,7.57
2022-12-03T05:34:24.506Z,7.57
2022-12-03T05:36:51.544Z,7.57
2022-12-03T05:39:18.567Z,7.40
2022-12-03T05:42:04.221Z,8.00
2022-12-03T05:44:31.712Z,6.83
2022-12-03T05:46:58.772Z,8.33
2022-12-03T05:49:25.808Z,7.20
2022-12-03T05:51:58.255Z,7.83
2022-12-03T05:54:25.829Z,7.40
2022-12-03T05:56:52.910Z,8.30
2022-12-03T05:59:19.997Z,7.17
2022-12-03T06:01:47.047Z,7.73
2022-12-03T06:04:14.110Z,8.30
2022-12-03T06:06:41.149Z,8.40
2022-12-03T06:09:08.199Z,7.90
2022-12-03T06:11:37.040Z,8.70
2022-12-03T06:14:04.396Z,7.17
2022-12-03T06:16:31.518Z,8.83
2022-12-03T06:18:58.630Z,7.73
2022-12-03T06:21:25.665Z,8.00
2022-12-03T06:23:52.745Z,7.40
2022-12-03T06:26:19.773Z,7.87
2022-12-03T06:28:49.064Z,8.23
2022-12-03T06:31:16.194Z,7.07
2022-12-03T06:33:43.288Z,7.50
2022-12-03T06:36:10.539Z,8.00
2022-12-03T06:38:37.592Z,7.63
2022-12-03T06:41:04.664Z,7.60
2022-12-03T06:43:31.771Z,6.73
2022-12-03T06:45:59.021Z,7.13
2022-12-03T06:48:26.231Z,7.33
2022-12-03T06:50:53.284Z,7.63
2022-12-03T06:53:20.331Z,7.83
2022-12-03T06:55:47.403Z,7.17
2022-12-03T06:58:14.461Z,7.10
2022-12-03T07:00:41.509Z,7.37
2022-12-03T07:03:08.633Z,7.57
2022-12-03T07:05:35.718Z,7.63
2022-12-03T07:08:02.884Z,7.37
2022-12-03T07:10:29.989Z,8.20
2022-12-03T07:12:57.077Z,7.57
2022-12-03T07:15:24.113Z,7.27
2022-12-03T07:17:51.285Z,7.53
2022-12-03T07:20:18.412Z,7.57
2022-12-03T07:22:45.491Z,7.50
2022-12-03T07:25:19.520Z,7.20
2022-12-03T07:27:49.813Z,7.90
2022-12-03T07:30:16.928Z,7.50
2022-12-03T07:32:44.034Z,6.63
2022-12-03T07:35:11.086Z,8.57
2022-12-03T07:37:38.279Z,7.93
2022-12-03T07:40:06.444Z,7.20
2022-12-03T07:42:33.557Z,7.90
2022-12-03T07:45:00.634Z,7.50
2022-12-03T07:47:27.699Z,7.20
2022-12-03T07:49:54.771Z,7.80
2022-12-03T07:52:21.925Z,8.13
2022-12-03T07:54:49.015Z,8.03
2022-12-03T07:57:16.106Z,7.30
2022-12-03T07:59:43.187Z,7.80
2022-12-03T08:02:10.316Z,7.20
2022-12-03T08:04:37.442Z,7.50
2022-12-03T08:07:04.579Z,7.63
2022-12-03T08:09:31.846Z,7.73
2022-12-03T08:12:00.594Z,7.87
2022-12-03T08:14:28.115Z,7.30
2022-12-03T08:16:55.298Z,7.60
2022-12-03T08:19:22.757Z,8.33
2022-12-03T08:21:49.893Z,7.80
2022-12-03T08:24:16.957Z,7.43
2022-12-03T08:26:44.597Z,7.77
2022-12-03T08:29:13.140Z,8.00
2022-12-03T08:31:40.440Z,7.67
2022-12-03T08:34:27.865Z,8.83
2022-12-03T08:37:06.387Z,8.17
2022-12-03T08:39:34.906Z,8.47
2022-12-03T08:42:23.627Z,8.00
2022-12-03T08:44:50.984Z,8.67
2022-12-03T08:47:21.540Z,8.33
2022-12-03T08:49:59.839Z,7.83
2022-12-03T08:52:31.303Z,8.33
2022-12-03T08:54:58.466Z,9.17
2022-12-03T08:57:29.975Z,9.47
2022-12-03T09:00:01.088Z,9.77
2022-12-03T09:02:36.998Z,8.67
2022-12-03T09:05:14.322Z,9.30
2022-12-03T09:07:41.393Z,8.13
2022-12-03T09:10:08.920Z,8.53
2022-12-03T09:12:35.959Z,8.77
2022-12-03T09:15:03.035Z,9.17
2022-12-03T09:17:30.186Z,9.20
2022-12-03T09:19:57.240Z,9.57
2022-12-03T09:22:24.295Z,8.13
2022-12-03T09:24:51.523Z,8.60
2022-12-03T09:27:18.880Z,8.80
2022-12-03T09:30:07.517Z,8.27
2022-12-03T09:32:34.586Z,9.23
2022-12-03T09:35:01.733Z,9.63
2022-12-03T09:37:28.775Z,9.30
2022-12-03T09:39:55.826Z,9.13
2022-12-03T09:42:23.043Z,9.37
2022-12-03T09:44:50.095Z,9.40
2022-12-03T09:47:17.375Z,9.80
2022-12-03T09:49:45.077Z,8.73
2022-12-03T09:52:14.817Z,9.27
2022-12-03T09:54:47.128Z,9.10
2022-12-03T09:57:14.788Z,9.87
2022-12-03T09:59:41.998Z,9.07
2022-12-03T10:02:20.861Z,9.40
2022-12-03T10:04:48.308Z,9.53
2022-12-03T10:07:15.602Z,9.90
2022-12-03T10:09:42.686Z,9.30
2022-12-03T10:12:12.526Z,9.53
2022-12-03T10:14:40.071Z,9.33
2022-12-03T10:17:07.216Z,9.33
2022-12-03T10:19:37.453Z,9.40
2022-12-03T10:22:04.684Z,9.83
2022-12-03T10:24:32.952Z,9.07
2022-12-03T10:27:04.200Z,9.53
2022-12-03T10:29:34.359Z,9.03
2022-12-03T10:32:05.906Z,9.87
2022-12-03T10:34:37.414Z,10.13
2022-12-03T10:37:10.432Z,10.40
2022-12-03T10:39:56.021Z,9.53
2022-12-03T10:42:23.741Z,9.50
2022-12-03T10:44:53.812Z,10.10
2022-12-03T10:47:22.564Z,10.53
2022-12-03T10:50:01.560Z,9.17
2022-12-03T10:52:28.608Z,9.23
2022-12-03T10:54:56.065Z,10.60
2022-12-03T10:57:23.358Z,9.37
2022-12-03T10:59:50.884Z,9.60
2022-12-03T11:02:22.275Z,9.67
2022-12-03T11:04:49.765Z,10.07
2022-12-03T11:07:18.554Z,9.20
2022-12-03T11:09:46.849Z,10.10
2022-12-03T11:12:24.886Z,10.10
2022-12-03T11:14:53.356Z,9.67
2022-12-03T11:17:43.952Z,9.77
2022-12-03T11:20:18.051Z,10.10
2022-12-03T11:22:48.873Z,10.40
2022-12-03T11:25:25.215Z,10.03
2022-12-03T11:28:12.814Z,9.60
2022-12-03T11:30:49.727Z,10.13
2022-12-03T11:33:28.964Z,10.03
2022-12-03T11:35:58.898Z,9.33
2022-12-03T11:38:38.061Z,10.13
2022-12-03T11:41:11.051Z,10.30
2022-12-03T11:43:53.271Z,10.73
2022-12-03T11:46:38.730Z,9.73
2022-12-03T11:49:21.296Z,10.80
2022-12-03T11:51:48.761Z,10.40
2022-12-03T11:54:19.481Z,9.53
2022-12-03T11:56:48.906Z,10.33
2022-12-03T11:59:16.827Z,10.33
2022-12-03T12:01:44.212Z,11.30
2022-12-03T12:04:32.529Z,10.43
2022-12-03T12:06:59.773Z,10.40
2022-12-03T12:09:45.696Z,11.00
2022-12-03T12:12:21.854Z,10.83
2022-12-03T12:14:48.946Z,10.10
2022-12-03T12:17:32.491Z,11.30
2022-12-03T12:20:12.757Z,10.60
2022-12-03T12:22:39.885Z,9.93
2022-12-03T12:25:26.903Z,10.03
2022-12-03T12:27:55.071Z,11.20
2022-12-03T12:30:23.411Z,10.80
2022-12-03T12:32:51.954Z,10.50
2022-12-03T12:35:23.563Z,10.17
2022-12-03T12:37:58.909Z,11.33
2022-12-03T12:40:27.826Z,10.37
2022-12-03T12:42:59.083Z,10.10
2022-12-03T12:45:30.335Z,11.17
2022-12-03T12:48:08.613Z,10.57
2022-12-03T12:50:35.848Z,11.23
2022-12-03T12:53:06.665Z,10.23
2022-12-03T12:55:33.782Z,9.50
2022-12-03T12:58:03.112Z,9.67
2022-12-03T13:00:30.239Z,10.17
2022-12-03T13:02:59.180Z,9.97
2022-12-03T13:05:27.858Z,9.13
2022-12-03T13:07:55.355Z,10.67
2022-12-03T13:10:28.507Z,10.50
2022-12-03T13:12:55.557Z,9.73
2022-12-03T13:15:37.199Z,9.70
2022-12-03T13:18:23.027Z,9.40
2022-12-03T13:20:50.133Z,9.87
2022-12-03T13:23:35.853Z,9.63
2022-12-03T13:26:23.788Z,9.70
2022-12-03T13:28:56.574Z,9.77
2022-12-03T13:31:23.709Z,9.47
2022-12-03T13:33:51.300Z,9.27
2022-12-03T13:36:20.024Z,9.10
2022-12-03T13:38:47.446Z,9.53
2022-12-03T13:41:36.270Z,9.20
2022-12-03T13:44:09.319Z,8.83
2022-12-03T13:46:36.790Z,9.03
2022-12-03T13:49:03.993Z,8.30
2022-12-03T13:51:32.582Z,8.23
2022-12-03T13:54:00.184Z,8.73
2022-12-03T13:56:27.768Z,8.23
2022-12-03T13:58:55.656Z,8.07
2022-12-03T14:01:22.923Z,8.40
2022-12-03T14:03:50.182Z,9.13
2022-12-03T14:06:27.254Z,8.23
2022-12-03T14:08:54.974Z,8.53
2022-12-03T14:11:40.657Z,6.90
2022-12-03T14:14:07.757Z,7.70
2022-12-03T14:16:34.845Z,7.20
2022-12-03T14:19:01.912Z,8.10
2022-12-03T14:21:29.034Z,7.87
2022-12-03T14:23:56.131Z,7.83
2022-12-03T14:26:23.185Z,7.93
2022-12-03T14:28:50.287Z,8.37
2022-12-03T14:31:17.369Z,7.53
2022-12-03T14:33:44.509Z,8.70
2022-12-03T14:36:11.551Z,8.67
2022-12-03T14:38:38.633Z,9.60
2022-12-03T14:41:25.730Z,9.47
2022-12-03T14:43:52.800Z,10.27
2022-12-03T14:46:19.990Z,9.30
2022-12-03T14:48:47.086Z,9.53
2022-12-03T14:51:14.232Z,9.40
2022-12-03T14:53:41.317Z,10.47
2022-12-03T14:56:08.457Z,10.90
2022-12-03T14:58:35.572Z,10.27
2022-12-03T15:01:02.686Z,10.40
2022-12-03T15:03:29.824Z,10.83
2022-12-03T15:05:56.988Z,10.90
2022-12-03T15:08:24.060Z,10.20
2022-12-03T15:10:51.137Z,11.07
2022-12-03T15:13:18.215Z,8.93
2022-12-03T15:15:45.256Z,9.80
2022-12-03T15:18:12.337Z,10.40
2022-12-03T15:20:39.467Z,8.80
2022-12-03T15:23:11.177Z,10.47
2022-12-03T15:25:41.093Z,11.13
2022-12-03T15:28:08.203Z,10.40
2022-12-03T15:30:38.189Z,11.03
2022-12-03T15:33:05.435Z,10.47
2022-12-03T15:35:32.647Z,9.57
2022-12-03T15:37:59.743Z,9.37
2022-12-03T15:40:26.866Z,11.17
2022-12-03T15:42:53.925Z,10.43
2022-12-03T15:45:20.977Z,10.50
2022-12-03T15:47:48.048Z,11.37
2022-12-03T15:50:15.162Z,11.10
2022-12-03T15:52:42.317Z,11.70
2022-12-03T15:55:09.566Z,10.97
2022-12-03T15:57:36.871Z,10.60
2022-12-03T16:00:05.012Z,9.07
2022-12-03T16:02:35.226Z,8.87
2022-12-03T16:05:03.081Z,10.53
2022-12-03T16:07:30.287Z,10.97
2022-12-03T16:09:57.503Z,9.70
2022-12-03T16:12:25.134Z,10.10
2022-12-03T16:14:52.191Z,10.37
2022-12-03T16:17:19.253Z,10.43
2022-12-03T16:19:46.593Z,9.63
2022-12-03T16:22:14.018Z,11.17
2022-12-03T16:24:41.139Z,9.67
2022-12-03T16:27:08.339Z,11.73
2022-12-03T16:29:36.999Z,9.73
2022-12-03T16:32:04.141Z,10.83
2022-12-03T16:34:31.193Z,10.80
2022-12-03T16:36:58.322Z,10.87
2022-12-03T16:39:25.349Z,10.47
2022-12-03T16:41:52.495Z,11.70
2022-12-03T16:44:51.563Z,11.53
2022-12-03T16:47:18.665Z,9.63
2022-12-03T16:49:45.734Z,9.40
2022-12-03T16:52:12.918Z,10.87
2022-12-03T16:54:39.963Z,10.80
2022-12-03T16:57:07.012Z,10.13
2022-12-03T16:59:34.117Z,10.60
2022-12-03T17:02:01.437Z,11.40
2022-12-03T17:04:28.592Z,11.07
2022-12-03T17:06:55.643Z,11.10
2022-12-03T17:09:22.710Z,11.70
2022-12-03T17:11:49.756Z,10.83
2022-12-03T17:14:16.885Z,11.67
2022-12-03T17:16:43.948Z,11.67
2022-12-03T17:19:11.061Z,10.80
2022-12-03T17:21:38.106Z,12.03
2022-12-03T17:24:05.334Z,11.03
2022-12-03T17:26:32.397Z,10.40
2022-12-03T17:28:59.464Z,10.70
2022-12-03T17:31:26.545Z,10.07
2022-12-03T17:33:57.260Z,11.47
2022-12-03T17:36:24.960Z,10.53
2022-12-03T17:38:52.297Z,10.20
2022-12-03T17:41:19.418Z,10.73
2022-12-03T17:43:46.478Z,10.00
2022-12-03T17:46:13.628Z,10.97
2022-12-03T17:48:42.429Z,11.07
2022-12-03T17:51:09.509Z,10.63
2022-12-03T17:53:36.587Z,10.73
2022-12-03T17:56:03.706Z,10.83
2022-12-03T17:58:30.771Z,9.50
2022-12-03T18:01:02.415Z,8.27
2022-12-03T18:03:30.459Z,11.30
2022-12-03T18:05:57.751Z,10.50
2022-12-03T18:08:24.810Z,11.30
2022-12-03T18:10:51.883Z,9.80
2022-12-03T18:13:18.966Z,10.27
2022-12-03T18:15:46.072Z,10.70
2022-12-03T18:18:13.158Z,8.50
2022-12-03T18:20:40.281Z,10.33
2022-12-03T18:23:07.353Z,9.30
2022-12-03T18:25:34.649Z,9.17
2022-12-03T18:28:01.866Z,11.07
2022-12-03T18:30:29.100Z,10.63
2022-12-03T18:32:56.176Z,10.50
2022-12-03T18:35:23.314Z,11.63
2022-12-03T18:37:51.134Z,10.73
2022-12-03T18:40:20.345Z,9.60
2022-12-03T18:42:47.926Z,10.70
2022-12-03T18:45:15.858Z,9.00
2022-12-03T18:47:43.272Z,9.77
2022-12-03T18:50:11.502Z,8.93
2022-12-03T18:52:38.735Z,10.10
2022-12-03T18:55:06.703Z,10.87
2022-12-03T18:57:33.796Z,9.20
2022-12-03T19:00:00.845Z,9.90
2022-12-03T19:05:14.972Z,10.40
2022-12-03T19:07:43.262Z,10.67
2022-12-03T19:10:11.120Z,11.20
2022-12-03T19:12:38.517Z,11.37
2022-12-03T19:15:06.192Z,9.60
2022-12-03T19:17:33.292Z,9.93
2022-12-03T19:20:00.323Z,10.07
2022-12-03T19:22:27.518Z,10.77
2022-12-03T19:24:54.565Z,11.77
2022-12-03T19:27:21.623Z,8.63
2022-12-03T19:29:49.307Z,10.50
2022-12-03T19:32:16.406Z,9.87
2022-12-03T19:34:43.516Z,10.10
2022-12-03T19:37:10.614Z,11.87
2022-12-03T19:39:37.674Z,9.47
2022-12-03T19:42:04.725Z,10.20
2022-12-03T19:44:31.814Z,10.53
2022-12-03T19:46:58.949Z,9.50
2022-12-03T19:49:26.446Z,10.17
2022-12-03T19:51:53.505Z,9.77
2022-12-03T19:54:20.590Z,8.53
2022-12-03T19:56:47.658Z,11.07
2022-12-03T19:59:15.178Z,10.23
2022-12-03T20:01:43.276Z,9.23
2022-12-03T20:04:11.526Z,10.33
2022-12-03T20:06:39.176Z,10.53
2022-12-03T20:09:07.809Z,11.10
2022-12-03T20:11:35.815Z,10.90
2022-12-03T20:14:04.450Z,10.27
2022-12-03T20:16:31.676Z,10.70
2022-12-03T20:18:59.654Z,11.03
2022-12-03T20:21:26.694Z,11.90
2022-12-03T20:23:53.825Z,11.47
2022-12-03T20:26:21.881Z,12.60
2022-12-03T20:28:49.308Z,12.43
2022-12-03T20:31:17.948Z,11.80
2022-12-03T20:33:46.740Z,11.17
2022-12-03T20:36:14.485Z,11.93
2022-12-03T20:38:41.573Z,12.77
2022-12-03T20:41:12.531Z,11.73
2022-12-03T20:43:39.652Z,12.27
2022-12-03T20:46:11.056Z,11.97
2022-12-03T20:48:38.575Z,12.07
2022-12-03T20:51:06.471Z,12.40
2022-12-03T20:53:33.931Z,13.20
2022-12-03T20:56:02.003Z,12.70
2022-12-03T20:58:29.467Z,12.80
2022-12-03T21:00:56.605Z,12.77
2022-12-03T21:03:23.697Z,12.97
2022-12-03T21:05:50.767Z,11.53
2022-12-03T21:08:33.969Z,12.63
2022-12-03T21:11:08.081Z,12.60
2022-12-03T21:13:35.270Z,12.20
2022-12-03T21:16:03.427Z,11.13
2022-12-03T21:18:30.654Z,12.87
2022-12-03T21:20:59.491Z,12.60
2022-12-03T21:23:26.563Z,12.87
2022-12-03T21:25:53.601Z,12.77
2022-12-03T21:28:20.646Z,12.00
2022-12-03T21:30:47.852Z,12.53
2022-12-03T21:33:14.960Z,11.33
2022-12-03T21:35:42.014Z,11.17
2022-12-03T21:38:09.082Z,12.60
2022-12-03T21:40:36.124Z,12.27
2022-12-03T21:43:03.192Z,11.97
2022-12-03T21:45:30.258Z,12.37
2022-12-03T21:47:57.476Z,11.43
2022-12-03T21:50:24.600Z,12.83
2022-12-03T21:52:51.689Z,11.40
2022-12-03T21:55:18.766Z,11.87
2022-12-03T21:57:45.859Z,11.57
2022-12-03T22:00:13.322Z,11.80
2022-12-03T22:02:40.718Z,11.70
2022-12-03T22:05:08.581Z,12.33
2022-12-03T22:07:36.101Z,12.23
2022-12-03T22:10:03.749Z,13.07
2022-12-03T22:12:31.319Z,13.33
2022-12-03T22:14:58.438Z,11.97
2022-12-03T22:17:25.905Z,13.10
2022-12-03T22:19:53.328Z,11.70
2022-12-03T22:22:20.615Z,12.73
2022-12-03T22:24:47.847Z,12.37
2022-12-03T22:27:15.507Z,12.53
2022-12-03T22:29:42.599Z,11.47
2022-12-03T22:32:09.748Z,11.47
2022-12-03T22:34:37.915Z,12.40
2022-12-03T22:37:05.223Z,12.70
2022-12-03T22:39:32.328Z,11.83
2022-12-03T22:41:59.424Z,11.60
2022-12-03T22:44:26.658Z,11.50
2022-12-03T22:46:53.773Z,12.13
2022-12-03T22:49:20.928Z,11.27
2022-12-03T22:51:48.269Z,11.77
2022-12-03T22:54:18.295Z,12.00
2022-12-03T22:56:49.415Z,13.20
2022-12-03T22:59:16.476Z,12.30
2022-12-03T23:01:43.642Z,12.10
2022-12-03T23:04:11.304Z,11.63
2022-12-03T23:06:38.832Z,11.87
2022-12-03T23:09:06.585Z,11.43
2022-12-03T23:11:34.014Z,12.00
2022-12-03T23:14:01.177Z,12.73
2022-12-03T23:16:30.099Z,10.60
2022-12-03T23:19:01.365Z,11.80
2022-12-03T23:21:30.588Z,11.80
2022-12-03T23:23:59.048Z,11.90
2022-12-03T23:26:26.210Z,11.50
2022-12-03T23:28:53.305Z,11.40
2022-12-03T23:31:22.012Z,10.87
2022-12-03T23:33:49.872Z,12.10
2022-12-03T23:36:17.288Z,11.63
2022-12-03T23:38:44.336Z,11.13
2022-12-03T23:41:13.143Z,11.67
2022-12-03T23:43:40.918Z,11.50
2022-12-03T23:46:09.465Z,11.00
2022-12-03T23:48:36.767Z,12.50
2022-12-03T23:51:08.162Z,11.53
2022-12-03T23:53:38.699Z,11.50
2022-12-03T23:56:09.865Z,11.60
2022-12-03T23:58:36.927Z,11.53
